sensor_id;sensor_type;location;lat;lon;timestamp;pressure;altitude;pressure_sealevel;temperature;humidity
77013;BME280;67260;53.130;17.982;2023-11-18T00:02:15;101513.73;;;1.78;92.44
77013;BME280;67260;53.130;17.982;2023-11-18T00:04:43;101517.96;;;1.86;92.63
77013;BME280;67260;53.130;17.982;2023-11-18T00:07:24;101520.80;;;1.86;92.24
77013;BME280;67260;53.130;17.982;2023-11-18T00:09:53;101527.01;;;1.85;92.10
77013;BME280;67260;53.130;17.982;2023-11-18T00:12:20;101525.61;;;1.86;92.45
77013;BME280;67260;53.130;17.982;2023-11-18T00:15:10;101529.60;;;1.85;91.87
77013;BME280;67260;53.130;17.982;2023-11-18T00:17:37;101534.14;;;1.81;91.93
77013;BME280;67260;53.130;17.982;2023-11-18T00:20:04;101539.48;;;1.83;92.34
77013;BME280;67260;53.130;17.982;2023-11-18T00:22:35;101533.52;;;1.86;92.47
77013;BME280;67260;53.130;17.982;2023-11-18T00:25:03;101537.34;;;1.84;92.27
77013;BME280;67260;53.130;17.982;2023-11-18T00:27:34;101536.70;;;1.83;92.30
77013;BME280;67260;53.130;17.982;2023-11-18T00:30:04;101541.23;;;1.85;92.48
77013;BME280;67260;53.130;17.982;2023-11-18T00:32:48;101547.44;;;1.84;92.18
77013;BME280;67260;53.130;17.982;2023-11-18T00:35:18;101547.77;;;1.85;92.39
77013;BME280;67260;53.130;17.982;2023-11-18T00:38:08;101551.23;;;1.87;92.37
77013;BME280;67260;53.130;17.982;2023-11-18T00:40:47;101555.85;;;1.90;92.53
77013;BME280;67260;53.130;17.982;2023-11-18T00:43:14;101560.16;;;1.91;92.47
77013;BME280;67260;53.130;17.982;2023-11-18T00:45:41;101565.02;;;1.91;92.27
77013;BME280;67260;53.130;17.982;2023-11-18T00:48:13;101569.85;;;1.88;91.95
77013;BME280;67260;53.130;17.982;2023-11-18T00:50:44;101572.98;;;1.82;91.84
77013;BME280;67260;53.130;17.982;2023-11-18T00:53:37;101574.35;;;1.76;91.85
77013;BME280;67260;53.130;17.982;2023-11-18T00:56:07;101577.88;;;1.72;91.78
77013;BME280;67260;53.130;17.982;2023-11-18T00:58:40;101581.21;;;1.67;91.97
77013;BME280;67260;53.130;17.982;2023-11-18T01:01:06;101581.41;;;1.65;92.11
77013;BME280;67260;53.130;17.982;2023-11-18T01:03:34;101581.58;;;1.67;92.37
77013;BME280;67260;53.130;17.982;2023-11-18T01:06:01;101585.27;;;1.64;91.85
77013;BME280;67260;53.130;17.982;2023-11-18T01:08:28;101583.37;;;1.60;91.95
77013;BME280;67260;53.130;17.982;2023-11-18T01:14:33;101585.42;;;1.54;91.97
77013;BME280;67260;53.130;17.982;2023-11-18T01:17:00;101584.91;;;1.56;92.39
77013;BME280;67260;53.130;17.982;2023-11-18T01:19:27;101585.16;;;1.59;92.45
77013;BME280;67260;53.130;17.982;2023-11-18T01:22:44;101586.14;;;1.58;92.12
77013;BME280;67260;53.130;17.982;2023-11-18T01:25:12;101589.82;;;1.60;92.34
77013;BME280;67260;53.130;17.982;2023-11-18T01:27:42;101590.04;;;1.59;92.23
77013;BME280;67260;53.130;17.982;2023-11-18T01:30:08;101591.19;;;1.58;92.07
77013;BME280;67260;53.130;17.982;2023-11-18T01:32:37;101599.63;;;1.55;92.25
77013;BME280;67260;53.130;17.982;2023-11-18T01:35:06;101595.86;;;1.52;92.14
77013;BME280;67260;53.130;17.982;2023-11-18T01:37:34;101593.63;;;1.54;92.32
77013;BME280;67260;53.130;17.982;2023-11-18T01:40:02;101594.90;;;1.58;92.63
77013;BME280;67260;53.130;17.982;2023-11-18T01:42:31;101596.88;;;1.63;92.64
77013;BME280;67260;53.130;17.982;2023-11-18T01:44:58;101595.20;;;1.67;92.66
77013;BME280;67260;53.130;17.982;2023-11-18T01:47:35;101597.77;;;1.65;92.19
77013;BME280;67260;53.130;17.982;2023-11-18T01:50:03;101595.61;;;1.64;92.16
77013;BME280;67260;53.130;17.982;2023-11-18T01:52:33;101596.89;;;1.61;92.01
77013;BME280;67260;53.130;17.982;2023-11-18T01:55:00;101595.23;;;1.60;92.03
77013;BME280;67260;53.130;17.982;2023-11-18T01:57:30;101598.75;;;1.60;92.21
77013;BME280;67260;53.130;17.982;2023-11-18T01:59:57;101600.94;;;1.61;92.42
77013;BME280;67260;53.130;17.982;2023-11-18T02:02:27;101606.00;;;1.61;92.23
77013;BME280;67260;53.130;17.982;2023-11-18T02:04:54;101612.17;;;1.58;92.18
77013;BME280;67260;53.130;17.982;2023-11-18T02:07:24;101615.61;;;1.54;91.97
77013;BME280;67260;53.130;17.982;2023-11-18T02:09:51;101615.59;;;1.52;92.29
77013;BME280;67260;53.130;17.982;2023-11-18T02:14:51;101620.70;;;1.56;92.56
77013;BME280;67260;53.130;17.982;2023-11-18T02:17:21;101616.45;;;1.53;91.97
77013;BME280;67260;53.130;17.982;2023-11-18T02:19:52;101616.58;;;1.51;92.28
77013;BME280;67260;53.130;17.982;2023-11-18T02:22:19;101615.94;;;1.50;92.41
77013;BME280;67260;53.130;17.982;2023-11-18T02:24:48;101615.60;;;1.50;92.28
77013;BME280;67260;53.130;17.982;2023-11-18T02:27:16;101618.84;;;1.49;92.34
77013;BME280;67260;53.130;17.982;2023-11-18T02:29:46;101619.42;;;1.50;92.52
77013;BME280;67260;53.130;17.982;2023-11-18T02:32:21;101623.92;;;1.51;92.56
77013;BME280;67260;53.130;17.982;2023-11-18T02:34:56;101623.88;;;1.51;92.44
77013;BME280;67260;53.130;17.982;2023-11-18T02:37:25;101628.66;;;1.46;92.04
77013;BME280;67260;53.130;17.982;2023-11-18T02:40:01;101632.30;;;1.43;92.18
77013;BME280;67260;53.130;17.982;2023-11-18T02:42:30;101636.88;;;1.40;92.20
77013;BME280;67260;53.130;17.982;2023-11-18T02:44:57;101639.34;;;1.42;92.69
77013;BME280;67260;53.130;17.982;2023-11-18T02:47:26;101639.75;;;1.48;92.90
77013;BME280;67260;53.130;17.982;2023-11-18T02:49:54;101642.61;;;1.53;92.89
77013;BME280;67260;53.130;17.982;2023-11-18T02:52:23;101647.34;;;1.59;93.01
77013;BME280;67260;53.130;17.982;2023-11-18T02:54:49;101649.41;;;1.64;93.04
77013;BME280;67260;53.130;17.982;2023-11-18T02:57:16;101657.73;;;1.69;93.05
77013;BME280;67260;53.130;17.982;2023-11-18T02:59:43;101658.77;;;1.71;92.83
77013;BME280;67260;53.130;17.982;2023-11-18T03:02:13;101658.88;;;1.76;92.70
77013;BME280;67260;53.130;17.982;2023-11-18T03:04:41;101658.57;;;1.77;92.58
77013;BME280;67260;53.130;17.982;2023-11-18T03:07:11;101665.77;;;1.75;92.17
77013;BME280;67260;53.130;17.982;2023-11-18T03:09:38;101666.99;;;1.73;92.31
77013;BME280;67260;53.130;17.982;2023-11-18T03:12:06;101671.58;;;1.74;92.44
77013;BME280;67260;53.130;17.982;2023-11-18T03:14:34;101672.95;;;1.77;92.47
77013;BME280;67260;53.130;17.982;2023-11-18T03:17:01;101675.80;;;1.78;92.43
77013;BME280;67260;53.130;17.982;2023-11-18T03:19:28;101681.45;;;1.78;92.41
77013;BME280;67260;53.130;17.982;2023-11-18T03:21:55;101684.52;;;1.74;92.17
77013;BME280;67260;53.130;17.982;2023-11-18T03:24:22;101687.98;;;1.73;92.22
77013;BME280;67260;53.130;17.982;2023-11-18T03:26:49;101697.02;;;1.71;92.27
77013;BME280;67260;53.130;17.982;2023-11-18T03:29:16;101703.47;;;1.69;92.15
77013;BME280;67260;53.130;17.982;2023-11-18T03:31:43;101702.98;;;1.71;92.55
77013;BME280;67260;53.130;17.982;2023-11-18T03:34:15;101709.36;;;1.74;92.66
77013;BME280;67260;53.130;17.982;2023-11-18T03:36:44;101712.61;;;1.77;92.70
77013;BME280;67260;53.130;17.982;2023-11-18T03:39:15;101717.86;;;1.79;92.61
77013;BME280;67260;53.130;17.982;2023-11-18T03:41:43;101722.73;;;1.81;92.60
77013;BME280;67260;53.130;17.982;2023-11-18T03:44:24;101724.04;;;1.82;92.51
77013;BME280;67260;53.130;17.982;2023-11-18T03:47:00;101732.04;;;1.82;92.45
77013;BME280;67260;53.130;17.982;2023-11-18T03:49:42;101735.79;;;1.79;92.37
77013;BME280;67260;53.130;17.982;2023-11-18T03:52:18;101735.40;;;1.80;92.44
77013;BME280;67260;53.130;17.982;2023-11-18T03:54:59;101739.73;;;1.82;92.75
77013;BME280;67260;53.130;17.982;2023-11-18T03:57:36;101741.30;;;1.84;92.72
77013;BME280;67260;53.130;17.982;2023-11-18T04:00:17;101737.71;;;1.85;92.66
77013;BME280;67260;53.130;17.982;2023-11-18T04:02:46;101737.56;;;1.87;92.62
77013;BME280;67260;53.130;17.982;2023-11-18T04:05:46;101737.66;;;1.88;92.65
77013;BME280;67260;53.130;17.982;2023-11-18T04:08:17;101741.73;;;1.90;92.77
77013;BME280;67260;53.130;17.982;2023-11-18T04:10:49;101749.23;;;1.92;92.76
77013;BME280;67260;53.130;17.982;2023-11-18T04:13:31;101749.06;;;1.96;92.92
77013;BME280;67260;53.130;17.982;2023-11-18T04:15:58;101751.86;;;1.98;92.81
77013;BME280;67260;53.130;17.982;2023-11-18T04:18:36;101755.96;;;2.00;92.55
77013;BME280;67260;53.130;17.982;2023-11-18T04:21:06;101759.60;;;2.00;92.59
77013;BME280;67260;53.130;17.982;2023-11-18T04:23:43;101763.23;;;2.01;92.54
77013;BME280;67260;53.130;17.982;2023-11-18T04:26:36;101772.02;;;2.02;92.34
77013;BME280;67260;53.130;17.982;2023-11-18T04:29:38;101777.05;;;2.02;92.53
77013;BME280;67260;53.130;17.982;2023-11-18T04:32:18;101782.36;;;2.04;92.74
77013;BME280;67260;53.130;17.982;2023-11-18T04:34:57;101779.33;;;2.04;92.52
77013;BME280;67260;53.130;17.982;2023-11-18T04:45:09;101781.45;;;2.08;92.78
77013;BME280;67260;53.130;17.982;2023-11-18T04:48:02;101784.92;;;2.10;92.49
77013;BME280;67260;53.130;17.982;2023-11-18T04:50:41;101788.67;;;2.10;92.38
77013;BME280;67260;53.130;17.982;2023-11-18T04:53:09;101789.20;;;2.09;92.38
77013;BME280;67260;53.130;17.982;2023-11-18T04:55:38;101787.60;;;2.10;92.62
77013;BME280;67260;53.130;17.982;2023-11-18T05:02:47;101801.69;;;2.12;92.55
77013;BME280;67260;53.130;17.982;2023-11-18T05:05:29;101801.86;;;2.13;92.39
77013;BME280;67260;53.130;17.982;2023-11-18T05:07:58;101807.10;;;2.10;92.47
77013;BME280;67260;53.130;17.982;2023-11-18T05:10:39;101807.29;;;2.10;92.51
77013;BME280;67260;53.130;17.982;2023-11-18T05:16:06;101807.65;;;2.12;92.76
77013;BME280;67260;53.130;17.982;2023-11-18T05:18:59;101810.82;;;2.12;92.45
77013;BME280;67260;53.130;17.982;2023-11-18T05:21:26;101813.05;;;2.12;92.48
77013;BME280;67260;53.130;17.982;2023-11-18T05:23:52;101820.75;;;2.14;92.58
77013;BME280;67260;53.130;17.982;2023-11-18T05:26:19;101819.94;;;2.16;92.50
77013;BME280;67260;53.130;17.982;2023-11-18T05:28:54;101821.38;;;2.17;92.55
77013;BME280;67260;53.130;17.982;2023-11-18T05:31:22;101822.25;;;2.22;92.79
77013;BME280;67260;53.130;17.982;2023-11-18T05:34:09;101824.30;;;2.24;92.73
77013;BME280;67260;53.130;17.982;2023-11-18T05:37:10;101828.58;;;2.27;92.63
77013;BME280;67260;53.130;17.982;2023-11-18T05:39:37;101830.70;;;2.29;92.42
77013;BME280;67260;53.130;17.982;2023-11-18T05:42:21;101834.69;;;2.27;92.31
77013;BME280;67260;53.130;17.982;2023-11-18T05:44:48;101840.58;;;2.26;92.26
77013;BME280;67260;53.130;17.982;2023-11-18T05:47:26;101840.00;;;2.27;92.69
77013;BME280;67260;53.130;17.982;2023-11-18T05:50:08;101842.23;;;2.27;92.40
77013;BME280;67260;53.130;17.982;2023-11-18T05:52:43;101841.56;;;2.29;92.56
77013;BME280;67260;53.130;17.982;2023-11-18T05:55:23;101844.10;;;2.28;92.36
77013;BME280;67260;53.130;17.982;2023-11-18T05:58:04;101849.33;;;2.30;92.43
77013;BME280;67260;53.130;17.982;2023-11-18T06:00:52;101845.19;;;2.34;92.73
77013;BME280;67260;53.130;17.982;2023-11-18T06:07:34;101840.83;;;2.29;92.17
77013;BME280;67260;53.130;17.982;2023-11-18T06:11:19;101836.36;;;2.26;92.33
77013;BME280;67260;53.130;17.982;2023-11-18T06:17:18;101860.23;;;2.23;92.51
77013;BME280;67260;53.130;17.982;2023-11-18T06:19:58;101859.61;;;2.22;92.43
77013;BME280;67260;53.130;17.982;2023-11-18T06:22:40;101860.33;;;2.22;92.43
77013;BME280;67260;53.130;17.982;2023-11-18T06:25:15;101860.52;;;2.22;92.48
77013;BME280;67260;53.130;17.982;2023-11-18T06:27:43;101859.13;;;2.21;92.61
77013;BME280;67260;53.130;17.982;2023-11-18T06:30:18;101866.73;;;2.23;92.62
77013;BME280;67260;53.130;17.982;2023-11-18T06:32:48;101869.47;;;2.23;92.72
77013;BME280;67260;53.130;17.982;2023-11-18T06:35:29;101875.17;;;2.26;92.65
77013;BME280;67260;53.130;17.982;2023-11-18T06:38:03;101874.83;;;2.26;92.74
77013;BME280;67260;53.130;17.982;2023-11-18T06:44:20;101886.27;;;2.27;92.20
77013;BME280;67260;53.130;17.982;2023-11-18T06:46:50;101888.70;;;2.27;92.45
77013;BME280;67260;53.130;17.982;2023-11-18T06:49:18;101889.55;;;2.28;92.39
77013;BME280;67260;53.130;17.982;2023-11-18T06:52:12;101894.08;;;2.28;92.29
77013;BME280;67260;53.130;17.982;2023-11-18T07:02:56;101892.58;;;2.29;91.92
77013;BME280;67260;53.130;17.982;2023-11-18T07:09:00;101901.85;;;2.29;91.92
77013;BME280;67260;53.130;17.982;2023-11-18T07:18:30;101904.77;;;2.75;91.55
77013;BME280;67260;53.130;17.982;2023-11-18T07:21:11;101906.83;;;3.04;91.32
77013;BME280;67260;53.130;17.982;2023-11-18T07:23:53;101910.63;;;3.23;90.63
77013;BME280;67260;53.130;17.982;2023-11-18T07:26:37;101911.98;;;3.30;90.04
77013;BME280;67260;53.130;17.982;2023-11-18T07:29:43;101910.61;;;3.38;89.88
77013;BME280;67260;53.130;17.982;2023-11-18T07:36:52;101909.37;;;4.36;88.79
77013;BME280;67260;53.130;17.982;2023-11-18T07:39:33;101911.27;;;4.24;88.36
77013;BME280;67260;53.130;17.982;2023-11-18T07:42:23;101915.04;;;4.10;87.54
77013;BME280;67260;53.130;17.982;2023-11-18T07:45:17;101916.54;;;4.01;87.90
77013;BME280;67260;53.130;17.982;2023-11-18T07:47:50;101921.76;;;3.97;88.07
77013;BME280;67260;53.130;17.982;2023-11-18T07:50:43;101931.58;;;3.89;87.79
77013;BME280;67260;53.130;17.982;2023-11-18T07:53:57;101921.92;;;3.87;87.97
77013;BME280;67260;53.130;17.982;2023-11-18T07:56:57;101925.67;;;4.06;88.23
77013;BME280;67260;53.130;17.982;2023-11-18T07:59:25;101922.79;;;4.37;87.23
77013;BME280;67260;53.130;17.982;2023-11-18T08:09:19;101922.39;;;7.63;81.26
77013;BME280;67260;53.130;17.982;2023-11-18T08:16:50;101927.78;;;6.56;81.56
77013;BME280;67260;53.130;17.982;2023-11-18T08:19:48;101926.36;;;6.63;81.85
77013;BME280;67260;53.130;17.982;2023-11-18T08:23:00;101931.27;;;7.04;81.20
77013;BME280;67260;53.130;17.982;2023-11-18T08:25:51;101927.85;;;7.23;81.58
77013;BME280;67260;53.130;17.982;2023-11-18T08:29:20;101928.17;;;7.19;80.19
77013;BME280;67260;53.130;17.982;2023-11-18T08:32:02;101925.67;;;7.07;80.04
77013;BME280;67260;53.130;17.982;2023-11-18T08:44:39;101936.38;;;6.02;80.35
77013;BME280;67260;53.130;17.982;2023-11-18T08:47:09;101941.84;;;5.73;81.39
77013;BME280;67260;53.130;17.982;2023-11-18T08:49:53;101939.02;;;5.46;81.67
77013;BME280;67260;53.130;17.982;2023-11-18T08:52:23;101941.45;;;5.26;81.82
77013;BME280;67260;53.130;17.982;2023-11-18T08:54:53;101942.48;;;5.08;82.45
77013;BME280;67260;53.130;17.982;2023-11-18T08:57:45;101952.69;;;5.00;82.21
77013;BME280;67260;53.130;17.982;2023-11-18T09:00:18;101955.52;;;5.00;82.10
77013;BME280;67260;53.130;17.982;2023-11-18T09:13:34;101977.45;;;6.25;78.73
77013;BME280;67260;53.130;17.982;2023-11-18T09:23:15;101980.37;;;8.87;74.88
77013;BME280;67260;53.130;17.982;2023-11-18T09:26:28;101984.13;;;9.54;73.97
77013;BME280;67260;53.130;17.982;2023-11-18T09:30:01;101978.52;;;12.14;69.86
77013;BME280;67260;53.130;17.982;2023-11-18T09:39:41;101991.97;;;15.39;61.45
77013;BME280;67260;53.130;17.982;2023-11-18T09:45:53;102004.65;;;13.05;65.64
77013;BME280;67260;53.130;17.982;2023-11-18T09:48:24;102002.83;;;11.91;65.91
77013;BME280;67260;53.130;17.982;2023-11-18T09:50:57;102003.64;;;10.93;65.49
77013;BME280;67260;53.130;17.982;2023-11-18T09:53:29;102010.25;;;10.12;67.33
77013;BME280;67260;53.130;17.982;2023-11-18T09:56:07;102018.77;;;9.55;68.37
77013;BME280;67260;53.130;17.982;2023-11-18T09:58:51;102024.86;;;9.14;69.05
77013;BME280;67260;53.130;17.982;2023-11-18T10:01:28;102025.94;;;8.79;69.92
77013;BME280;67260;53.130;17.982;2023-11-18T10:04:29;102018.17;;;8.49;69.42
77013;BME280;67260;53.130;17.982;2023-11-18T10:06:58;102022.81;;;8.03;68.64
77013;BME280;67260;53.130;17.982;2023-11-18T10:09:27;102031.63;;;7.70;69.43
77013;BME280;67260;53.130;17.982;2023-11-18T10:12:10;102040.20;;;7.48;70.05
77013;BME280;67260;53.130;17.982;2023-11-18T10:14:42;102042.23;;;7.36;69.75
77013;BME280;67260;53.130;17.982;2023-11-18T10:17:12;102038.42;;;7.14;69.68
77013;BME280;67260;53.130;17.982;2023-11-18T10:22:25;102036.92;;;6.63;70.19
77013;BME280;67260;53.130;17.982;2023-11-18T10:24:53;102040.54;;;6.38;69.85
77013;BME280;67260;53.130;17.982;2023-11-18T10:27:26;102039.76;;;6.13;69.99
77013;BME280;67260;53.130;17.982;2023-11-18T10:29:58;102045.15;;;5.99;70.54
77013;BME280;67260;53.130;17.982;2023-11-18T10:32:29;102048.52;;;5.88;69.93
77013;BME280;67260;53.130;17.982;2023-11-18T10:34:57;102047.12;;;5.78;70.38
77013;BME280;67260;53.130;17.982;2023-11-18T10:37:31;102047.19;;;5.73;70.52
77013;BME280;67260;53.130;17.982;2023-11-18T10:40:06;102044.98;;;5.71;69.93
77013;BME280;67260;53.130;17.982;2023-11-18T10:42:41;102044.23;;;5.68;69.78
77013;BME280;67260;53.130;17.982;2023-11-18T10:48:51;102056.95;;;5.61;69.93
77013;BME280;67260;53.130;17.982;2023-11-18T10:51:21;102062.30;;;5.62;68.58
77013;BME280;67260;53.130;17.982;2023-11-18T10:53:53;102063.22;;;5.62;68.14
77013;BME280;67260;53.130;17.982;2023-11-18T10:56:23;102052.48;;;5.70;69.56
77013;BME280;67260;53.130;17.982;2023-11-18T10:59:04;102049.85;;;5.75;68.74
77013;BME280;67260;53.130;17.982;2023-11-18T11:01:38;102053.27;;;5.61;68.59
77013;BME280;67260;53.130;17.982;2023-11-18T11:04:12;102056.06;;;5.40;69.52
77013;BME280;67260;53.130;17.982;2023-11-18T11:06:44;102053.57;;;5.29;69.74
77013;BME280;67260;53.130;17.982;2023-11-18T11:09:24;102059.09;;;5.13;69.03
77013;BME280;67260;53.130;17.982;2023-11-18T11:12:29;102064.67;;;5.02;69.31
77013;BME280;67260;53.130;17.982;2023-11-18T11:15:13;102070.27;;;5.02;69.30
77013;BME280;67260;53.130;17.982;2023-11-18T11:18:11;102069.55;;;5.02;69.59
77013;BME280;67260;53.130;17.982;2023-11-18T11:38:28;102080.65;;;5.77;67.37
77013;BME280;67260;53.130;17.982;2023-11-18T11:41:13;102081.17;;;5.62;66.38
77013;BME280;67260;53.130;17.982;2023-11-18T11:43:53;102078.98;;;5.47;67.36
77013;BME280;67260;53.130;17.982;2023-11-18T11:46:39;102071.40;;;5.36;67.08
77013;BME280;67260;53.130;17.982;2023-11-18T11:49:55;102081.44;;;5.26;68.08
77013;BME280;67260;53.130;17.982;2023-11-18T11:52:33;102088.52;;;5.23;68.52
77013;BME280;67260;53.130;17.982;2023-11-18T11:58:42;102081.30;;;5.27;68.25
77013;BME280;67260;53.130;17.982;2023-11-18T12:01:25;102077.48;;;5.25;68.06
77013;BME280;67260;53.130;17.982;2023-11-18T12:04:03;102078.73;;;5.25;68.28
77013;BME280;67260;53.130;17.982;2023-11-18T12:06:41;102085.38;;;5.25;67.61
77013;BME280;67260;53.130;17.982;2023-11-18T12:09:10;102079.11;;;5.26;67.62
77013;BME280;67260;53.130;17.982;2023-11-18T12:11:37;102080.55;;;5.28;68.10
77013;BME280;67260;53.130;17.982;2023-11-18T12:14:12;102085.80;;;5.34;68.62
77013;BME280;67260;53.130;17.982;2023-11-18T12:19:44;102087.23;;;5.43;68.34
77013;BME280;67260;53.130;17.982;2023-11-18T12:23:05;102090.79;;;5.45;67.80
77013;BME280;67260;53.130;17.982;2023-11-18T12:25:44;102094.59;;;5.42;68.31
77013;BME280;67260;53.130;17.982;2023-11-18T12:28:28;102089.34;;;5.36;68.56
77013;BME280;67260;53.130;17.982;2023-11-18T12:30:57;102088.05;;;5.31;68.95
77013;BME280;67260;53.130;17.982;2023-11-18T12:43:02;102084.21;;;5.09;68.67
77013;BME280;67260;53.130;17.982;2023-11-18T12:45:43;102085.08;;;5.13;69.13
77013;BME280;67260;53.130;17.982;2023-11-18T12:48:14;102086.42;;;5.18;68.72
77013;BME280;67260;53.130;17.982;2023-11-18T12:50:41;102089.20;;;5.12;68.56
77013;BME280;67260;53.130;17.982;2023-11-18T12:53:14;102085.52;;;5.00;68.83
77013;BME280;67260;53.130;17.982;2023-11-18T12:55:41;102085.88;;;4.93;69.20
77013;BME280;67260;53.130;17.982;2023-11-18T12:58:09;102090.54;;;4.83;69.49
77013;BME280;67260;53.130;17.982;2023-11-18T13:00:40;102095.49;;;4.81;69.85
77013;BME280;67260;53.130;17.982;2023-11-18T13:03:09;102106.17;;;4.85;69.57
77013;BME280;67260;53.130;17.982;2023-11-18T13:05:37;102102.73;;;4.86;69.72
77013;BME280;67260;53.130;17.982;2023-11-18T13:08:04;102104.71;;;4.86;69.90
77013;BME280;67260;53.130;17.982;2023-11-18T13:10:31;102101.96;;;4.85;69.75
77013;BME280;67260;53.130;17.982;2023-11-18T13:12:58;102108.67;;;4.83;69.31
77013;BME280;67260;53.130;17.982;2023-11-18T13:15:27;102101.30;;;4.77;69.51
77013;BME280;67260;53.130;17.982;2023-11-18T13:18:01;102099.45;;;4.70;69.26
77013;BME280;67260;53.130;17.982;2023-11-18T13:20:39;102099.59;;;4.63;69.42
77013;BME280;67260;53.130;17.982;2023-11-18T13:23:09;102105.84;;;4.57;69.97
77013;BME280;67260;53.130;17.982;2023-11-18T13:25:35;102101.73;;;4.56;70.17
77013;BME280;67260;53.130;17.982;2023-11-18T13:28:07;102099.02;;;4.51;69.68
77013;BME280;67260;53.130;17.982;2023-11-18T13:30:36;102098.44;;;4.48;69.80
77013;BME280;67260;53.130;17.982;2023-11-18T13:33:05;102100.52;;;4.44;70.13
77013;BME280;67260;53.130;17.982;2023-11-18T13:35:35;102102.85;;;4.41;70.57
77013;BME280;67260;53.130;17.982;2023-11-18T13:38:02;102103.46;;;4.42;70.60
77013;BME280;67260;53.130;17.982;2023-11-18T13:40:45;102105.96;;;4.40;70.30
77013;BME280;67260;53.130;17.982;2023-11-18T13:43:13;102110.20;;;4.38;70.33
77013;BME280;67260;53.130;17.982;2023-11-18T13:45:40;102111.52;;;4.35;70.46
77013;BME280;67260;53.130;17.982;2023-11-18T13:48:11;102117.75;;;4.31;70.43
77013;BME280;67260;53.130;17.982;2023-11-18T13:50:40;102120.92;;;4.27;70.70
77013;BME280;67260;53.130;17.982;2023-11-18T13:53:08;102118.79;;;4.25;70.71
77013;BME280;67260;53.130;17.982;2023-11-18T13:55:35;102120.98;;;4.24;70.96
77013;BME280;67260;53.130;17.982;2023-11-18T13:58:05;102120.34;;;4.22;70.76
77013;BME280;67260;53.130;17.982;2023-11-18T14:00:32;102121.44;;;4.19;71.19
77013;BME280;67260;53.130;17.982;2023-11-18T14:02:59;102125.70;;;4.18;71.20
77013;BME280;67260;53.130;17.982;2023-11-18T14:05:26;102125.81;;;4.15;71.22
77013;BME280;67260;53.130;17.982;2023-11-18T14:07:53;102122.59;;;4.12;71.43
77013;BME280;67260;53.130;17.982;2023-11-18T14:10:25;102122.77;;;4.10;71.55
77013;BME280;67260;53.130;17.982;2023-11-18T14:13:02;102123.27;;;4.08;71.75
77013;BME280;67260;53.130;17.982;2023-11-18T14:16:48;102123.20;;;4.03;71.50
77013;BME280;67260;53.130;17.982;2023-11-18T14:19:45;102124.62;;;3.99;72.04
77013;BME280;67260;53.130;17.982;2023-11-18T14:22:12;102130.20;;;3.93;71.54
77013;BME280;67260;53.130;17.982;2023-11-18T14:24:39;102132.64;;;3.82;71.48
77013;BME280;67260;53.130;17.982;2023-11-18T14:27:07;102130.53;;;3.74;71.97
77013;BME280;67260;53.130;17.982;2023-11-18T14:29:36;102129.53;;;3.69;72.11
77013;BME280;67260;53.130;17.982;2023-11-18T14:32:04;102134.49;;;3.64;72.37
77013;BME280;67260;53.130;17.982;2023-11-18T14:34:32;102137.83;;;3.62;72.31
77013;BME280;67260;53.130;17.982;2023-11-18T14:36:59;102141.30;;;3.60;72.37
77013;BME280;67260;53.130;17.982;2023-11-18T14:39:27;102138.18;;;3.57;72.28
77013;BME280;67260;53.130;17.982;2023-11-18T14:41:54;102139.52;;;3.52;71.99
77013;BME280;67260;53.130;17.982;2023-11-18T14:44:20;102135.55;;;3.47;72.08
77013;BME280;67260;53.130;17.982;2023-11-18T14:46:53;102131.73;;;3.43;72.15
77013;BME280;67260;53.130;17.982;2023-11-18T14:49:21;102126.07;;;3.37;72.06
77013;BME280;67260;53.130;17.982;2023-11-18T14:51:49;102125.95;;;3.30;72.19
77013;BME280;67260;53.130;17.982;2023-11-18T14:54:15;102122.27;;;3.25;72.14
77013;BME280;67260;53.130;17.982;2023-11-18T14:56:44;102123.55;;;3.23;72.13
77013;BME280;67260;53.130;17.982;2023-11-18T14:59:14;102127.39;;;3.18;72.33
77013;BME280;67260;53.130;17.982;2023-11-18T15:01:47;102124.02;;;3.15;72.22
77013;BME280;67260;53.130;17.982;2023-11-18T15:04:14;102119.91;;;3.10;72.19
77013;BME280;67260;53.130;17.982;2023-11-18T15:06:42;102120.25;;;3.06;72.30
77013;BME280;67260;53.130;17.982;2023-11-18T15:09:09;102113.05;;;3.02;72.31
77013;BME280;67260;53.130;17.982;2023-11-18T15:11:37;102108.70;;;2.97;72.37
77013;BME280;67260;53.130;17.982;2023-11-18T15:14:04;102106.29;;;2.94;72.54
77013;BME280;67260;53.130;17.982;2023-11-18T15:16:31;102108.08;;;2.94;72.68
77013;BME280;67260;53.130;17.982;2023-11-18T15:18:57;102106.56;;;3.00;72.71
77013;BME280;67260;53.130;17.982;2023-11-18T15:21:25;102106.82;;;3.03;72.67
77013;BME280;67260;53.130;17.982;2023-11-18T15:23:52;102104.13;;;3.02;72.25
77013;BME280;67260;53.130;17.982;2023-11-18T15:26:28;102102.67;;;2.98;72.13
77013;BME280;67260;53.130;17.982;2023-11-18T15:29:03;102097.56;;;2.92;72.37
77013;BME280;67260;53.130;17.982;2023-11-18T15:31:48;102099.43;;;2.88;72.39
77013;BME280;67260;53.130;17.982;2023-11-18T15:34:15;102106.83;;;2.87;72.67
77013;BME280;67260;53.130;17.982;2023-11-18T15:46:04;102100.34;;;2.72;73.22
77013;BME280;67260;53.130;17.982;2023-11-18T15:48:32;102098.44;;;2.70;73.58
77013;BME280;67260;53.130;17.982;2023-11-18T15:51:02;102098.96;;;2.68;73.62
77013;BME280;67260;53.130;17.982;2023-11-18T15:53:29;102089.19;;;2.63;73.66
77013;BME280;67260;53.130;17.982;2023-11-18T15:55:56;102087.44;;;2.59;73.94
77013;BME280;67260;53.130;17.982;2023-11-18T15:58:23;102089.27;;;2.58;74.06
77013;BME280;67260;53.130;17.982;2023-11-18T16:00:53;102091.30;;;2.56;74.51
77013;BME280;67260;53.130;17.982;2023-11-18T16:03:19;102089.39;;;2.56;74.49
77013;BME280;67260;53.130;17.982;2023-11-18T16:09:09;102091.40;;;2.53;74.41
77013;BME280;67260;53.130;17.982;2023-11-18T16:11:37;102088.63;;;2.52;74.79